sensor_id;sensor_type;location;lat;lon;timestamp;pressure;altitude;pressure_sealevel;temperature;humidity
6528;BME280;64597;42.664;23.256;2023-08-31T00:02:01;94058.69;;;20.35;50.00
6528;BME280;64597;42.664;23.256;2023-08-31T00:04:29;94060.41;;;20.31;49.97
6528;BME280;64597;42.664;23.256;2023-08-31T00:06:54;94060.88;;;20.33;50.07
6528;BME280;64597;42.664;23.256;2023-08-31T00:09:22;94060.53;;;20.26;50.32
6528;BME280;64597;42.664;23.256;2023-08-31T00:11:49;94055.97;;;20.27;50.20
6528;BME280;64597;42.664;23.256;2023-08-31T00:14:15;94039.81;;;20.18;50.24
6528;BME280;64597;42.664;23.256;2023-08-31T00:16:43;94004.25;;;19.96;50.09
6528;BME280;64597;42.664;23.256;2023-08-31T00:19:11;94047.63;;;20.28;50.03
6528;BME280;64597;42.664;23.256;2023-08-31T00:21:36;94050.66;;;20.35;49.84
6528;BME280;64597;42.664;23.256;2023-08-31T00:24:02;94047.19;;;20.35;49.96
6528;BME280;64597;42.664;23.256;2023-08-31T00:26:28;94058.00;;;20.21;50.15
6528;BME280;64597;42.664;23.256;2023-08-31T00:28:56;94055.78;;;20.23;50.44
6528;BME280;64597;42.664;23.256;2023-08-31T00:31:22;94067.47;;;20.27;50.29
6528;BME280;64597;42.664;23.256;2023-08-31T00:33:47;94075.69;;;20.31;50.14
6528;BME280;64597;42.664;23.256;2023-08-31T00:36:14;94063.41;;;20.30;50.25
6528;BME280;64597;42.664;23.256;2023-08-31T00:38:39;94084.31;;;20.28;50.28
6528;BME280;64597;42.664;23.256;2023-08-31T00:41:04;94030.47;;;20.07;50.10
6528;BME280;64597;42.664;23.256;2023-08-31T00:43:31;94074.38;;;20.28;50.49
6528;BME280;64597;42.664;23.256;2023-08-31T00:45:57;94081.94;;;20.26;50.52
6528;BME280;64597;42.664;23.256;2023-08-31T00:48:24;94079.16;;;20.31;50.27
6528;BME280;64597;42.664;23.256;2023-08-31T00:50:50;94082.31;;;20.33;50.36
6528;BME280;64597;42.664;23.256;2023-08-31T00:53:17;94083.28;;;20.37;50.05
6528;BME280;64597;42.664;23.256;2023-08-31T00:55:44;94051.22;;;20.24;50.08
6528;BME280;64597;42.664;23.256;2023-08-31T00:58:10;94039.53;;;20.20;49.95
6528;BME280;64597;42.664;23.256;2023-08-31T01:06:18;94083.81;;;20.48;49.78
6528;BME280;64597;42.664;23.256;2023-08-31T01:09:18;94081.31;;;20.51;49.70
6528;BME280;64597;42.664;23.256;2023-08-31T01:12:06;94081.31;;;20.51;49.82
6528;BME280;64597;42.664;23.256;2023-08-31T01:14:57;94086.19;;;20.49;49.63
6528;BME280;64597;42.664;23.256;2023-08-31T01:17:26;94087.75;;;20.50;49.73
6528;BME280;64597;42.664;23.256;2023-08-31T01:19:55;94087.16;;;20.53;49.79
6528;BME280;64597;42.664;23.256;2023-08-31T01:22:37;94087.50;;;20.61;49.76
6528;BME280;64597;42.664;23.256;2023-08-31T01:25:05;94086.03;;;20.54;49.80
6528;BME280;64597;42.664;23.256;2023-08-31T01:27:38;94086.50;;;20.48;49.72
6528;BME280;64597;42.664;23.256;2023-08-31T01:30:04;94086.50;;;20.48;50.05
6528;BME280;64597;42.664;23.256;2023-08-31T01:32:34;94084.09;;;20.46;49.97
6528;BME280;64597;42.664;23.256;2023-08-31T01:35:00;94081.25;;;20.43;49.97
6528;BME280;64597;42.664;23.256;2023-08-31T01:37:45;94096.91;;;20.49;49.87
6528;BME280;64597;42.664;23.256;2023-08-31T01:40:14;94081.00;;;20.53;49.76
6528;BME280;64597;42.664;23.256;2023-08-31T01:42:43;94074.34;;;20.50;49.88
6528;BME280;64597;42.664;23.256;2023-08-31T01:45:19;94078.47;;;20.48;49.96
6528;BME280;64597;42.664;23.256;2023-08-31T01:47:46;94074.63;;;20.40;50.35
6528;BME280;64597;42.664;23.256;2023-08-31T01:50:12;94061.63;;;20.25;50.50
6528;BME280;64597;42.664;23.256;2023-08-31T01:52:37;94069.66;;;20.25;50.57
6528;BME280;64597;42.664;23.256;2023-08-31T01:55:04;94079.50;;;20.38;50.72
6528;BME280;64597;42.664;23.256;2023-08-31T01:57:30;94087.78;;;20.28;50.63
6528;BME280;64597;42.664;23.256;2023-08-31T01:59:55;94088.88;;;20.27;50.85
6528;BME280;64597;42.664;23.256;2023-08-31T02:02:21;94090.88;;;20.22;51.20
6528;BME280;64597;42.664;23.256;2023-08-31T02:04:46;94098.22;;;20.16;51.07
6528;BME280;64597;42.664;23.256;2023-08-31T02:07:12;94091.75;;;19.95;51.24
6528;BME280;64597;42.664;23.256;2023-08-31T02:09:37;94104.63;;;20.07;51.35
6528;BME280;64597;42.664;23.256;2023-08-31T02:12:03;94113.31;;;20.12;51.29
6528;BME280;64597;42.664;23.256;2023-08-31T02:14:29;94114.41;;;20.11;51.20
6528;BME280;64597;42.664;23.256;2023-08-31T02:16:55;94109.78;;;20.03;51.45
6528;BME280;64597;42.664;23.256;2023-08-31T02:19:20;94109.09;;;19.98;51.40
6528;BME280;64597;42.664;23.256;2023-08-31T02:21:46;94107.81;;;19.95;51.90
6528;BME280;64597;42.664;23.256;2023-08-31T02:24:11;94105.88;;;19.87;51.66
6528;BME280;64597;42.664;23.256;2023-08-31T02:26:40;94109.75;;;19.81;51.84
6528;BME280;64597;42.664;23.256;2023-08-31T02:29:05;94102.16;;;19.75;52.08
6528;BME280;64597;42.664;23.256;2023-08-31T02:31:31;94102.81;;;19.58;52.19
6528;BME280;64597;42.664;23.256;2023-08-31T02:33:56;94092.28;;;19.61;52.39
6528;BME280;64597;42.664;23.256;2023-08-31T02:36:22;94100.38;;;19.70;52.17
6528;BME280;64597;42.664;23.256;2023-08-31T02:38:47;94092.47;;;19.65;52.18
6528;BME280;64597;42.664;23.256;2023-08-31T02:41:15;94096.13;;;19.69;52.19
6528;BME280;64597;42.664;23.256;2023-08-31T02:43:40;94104.75;;;19.66;52.63
6528;BME280;64597;42.664;23.256;2023-08-31T02:46:06;94093.66;;;19.59;52.63
6528;BME280;64597;42.664;23.256;2023-08-31T02:48:34;94111.97;;;19.65;52.70
6528;BME280;64597;42.664;23.256;2023-08-31T02:51:00;94089.72;;;19.56;52.73
6528;BME280;64597;42.664;23.256;2023-08-31T02:53:30;94089.03;;;19.51;52.92
6528;BME280;64597;42.664;23.256;2023-08-31T02:55:56;94109.72;;;19.59;52.86
6528;BME280;64597;42.664;23.256;2023-08-31T02:58:22;94119.03;;;19.61;52.63
6528;BME280;64597;42.664;23.256;2023-08-31T03:00:47;94122.03;;;19.46;52.85
6528;BME280;64597;42.664;23.256;2023-08-31T03:03:17;94132.53;;;19.43;52.95
6528;BME280;64597;42.664;23.256;2023-08-31T03:05:43;94129.28;;;19.46;52.90
6528;BME280;64597;42.664;23.256;2023-08-31T03:08:09;94140.56;;;19.43;52.61
6528;BME280;64597;42.664;23.256;2023-08-31T03:10:36;94137.56;;;19.44;52.80
6528;BME280;64597;42.664;23.256;2023-08-31T03:13:01;94140.06;;;19.41;52.67
6528;BME280;64597;42.664;23.256;2023-08-31T03:15:27;94125.00;;;19.45;52.80
6528;BME280;64597;42.664;23.256;2023-08-31T03:17:52;94131.44;;;19.44;53.13
6528;BME280;64597;42.664;23.256;2023-08-31T03:20:18;94130.16;;;19.41;53.45
6528;BME280;64597;42.664;23.256;2023-08-31T03:22:43;94134.72;;;19.41;53.06
6528;BME280;64597;42.664;23.256;2023-08-31T03:25:09;94136.31;;;19.42;53.04
6528;BME280;64597;42.664;23.256;2023-08-31T03:27:34;94124.63;;;19.38;53.15
6528;BME280;64597;42.664;23.256;2023-08-31T03:30:01;94083.03;;;19.18;53.06
6528;BME280;64597;42.664;23.256;2023-08-31T03:32:26;94070.75;;;19.04;52.43
6528;BME280;64597;42.664;23.256;2023-08-31T03:34:52;94133.72;;;19.37;52.80
6528;BME280;64597;42.664;23.256;2023-08-31T03:37:17;94128.88;;;19.39;52.56
6528;BME280;64597;42.664;23.256;2023-08-31T03:39:43;94134.72;;;19.41;53.23
6528;BME280;64597;42.664;23.256;2023-08-31T03:42:09;94136.50;;;19.32;53.22
6528;BME280;64597;42.664;23.256;2023-08-31T03:44:35;94109.94;;;19.22;53.27
6528;BME280;64597;42.664;23.256;2023-08-31T03:47:02;94131.44;;;19.17;53.34
6528;BME280;64597;42.664;23.256;2023-08-31T03:49:27;94138.06;;;19.33;53.13
6528;BME280;64597;42.664;23.256;2023-08-31T03:51:53;94145.81;;;19.34;52.73
6528;BME280;64597;42.664;23.256;2023-08-31T03:54:19;94133.91;;;19.27;52.36
6528;BME280;64597;42.664;23.256;2023-08-31T03:56:45;94149.78;;;19.37;52.07
6528;BME280;64597;42.664;23.256;2023-08-31T03:59:10;94140.19;;;19.36;51.82
6528;BME280;64597;42.664;23.256;2023-08-31T04:01:36;94127.56;;;19.23;51.84
6528;BME280;64597;42.664;23.256;2023-08-31T04:04:01;94164.03;;;19.46;51.62
6528;BME280;64597;42.664;23.256;2023-08-31T04:06:27;94176.69;;;19.40;51.61
6528;BME280;64597;42.664;23.256;2023-08-31T04:08:54;94171.78;;;19.34;51.63
6528;BME280;64597;42.664;23.256;2023-08-31T04:11:19;94172.31;;;19.31;51.75
6528;BME280;64597;42.664;23.256;2023-08-31T04:13:44;94194.72;;;19.48;51.91
6528;BME280;64597;42.664;23.256;2023-08-31T04:16:10;94194.72;;;19.48;51.91
6528;BME280;64597;42.664;23.256;2023-08-31T04:18:35;94195.41;;;19.40;52.01
6528;BME280;64597;42.664;23.256;2023-08-31T04:21:01;94195.91;;;19.42;51.92
6528;BME280;64597;42.664;23.256;2023-08-31T04:23:29;94204.41;;;19.44;52.03
6528;BME280;64597;42.664;23.256;2023-08-31T04:25:55;94201.06;;;19.39;52.18
6528;BME280;64597;42.664;23.256;2023-08-31T04:28:23;94203.94;;;19.42;52.50
6528;BME280;64597;42.664;23.256;2023-08-31T04:30:49;94212.94;;;19.46;52.55
6528;BME280;64597;42.664;23.256;2023-08-31T04:33:18;94213.44;;;19.48;52.17
6528;BME280;64597;42.664;23.256;2023-08-31T04:35:44;94213.66;;;19.52;52.23
6528;BME280;64597;42.664;23.256;2023-08-31T04:38:09;94201.34;;;19.51;52.23
6528;BME280;64597;42.664;23.256;2023-08-31T04:40:35;94217.81;;;19.58;52.58
6528;BME280;64597;42.664;23.256;2023-08-31T04:43:02;94192.94;;;19.44;52.55
6528;BME280;64597;42.664;23.256;2023-08-31T04:45:28;94211.16;;;19.55;52.71
6528;BME280;64597;42.664;23.256;2023-08-31T04:47:54;94198.00;;;19.45;52.69
6528;BME280;64597;42.664;23.256;2023-08-31T04:50:19;94221.84;;;19.69;52.81
6528;BME280;64597;42.664;23.256;2023-08-31T04:52:44;94223.63;;;19.73;52.80
6528;BME280;64597;42.664;23.256;2023-08-31T04:55:12;94226.50;;;19.77;52.95
6528;BME280;64597;42.664;23.256;2023-08-31T04:57:38;94168.97;;;19.52;52.67
6528;BME280;64597;42.664;23.256;2023-08-31T05:00:04;94213.91;;;19.78;52.99
6528;BME280;64597;42.664;23.256;2023-08-31T05:02:30;94223.59;;;19.87;53.25
6528;BME280;64597;42.664;23.256;2023-08-31T05:04:55;94165.38;;;19.57;53.03
6528;BME280;64597;42.664;23.256;2023-08-31T05:07:21;94230.50;;;20.02;53.27
6528;BME280;64597;42.664;23.256;2023-08-31T05:09:46;94228.94;;;20.01;53.36
6528;BME280;64597;42.664;23.256;2023-08-31T05:12:12;94212.00;;;20.05;52.68
6528;BME280;64597;42.664;23.256;2023-08-31T05:14:37;94238.63;;;20.24;52.86
6528;BME280;64597;42.664;23.256;2023-08-31T05:17:05;94241.19;;;20.29;52.32
6528;BME280;64597;42.664;23.256;2023-08-31T05:19:30;94224.81;;;20.30;52.11
6528;BME280;64597;42.664;23.256;2023-08-31T05:21:56;94225.69;;;20.39;52.40
6528;BME280;64597;42.664;23.256;2023-08-31T05:24:22;94207.53;;;20.36;51.90
6528;BME280;64597;42.664;23.256;2023-08-31T05:26:48;94233.16;;;20.65;51.71
6528;BME280;64597;42.664;23.256;2023-08-31T05:29:14;94225.09;;;20.65;51.59
6528;BME280;64597;42.664;23.256;2023-08-31T05:31:39;94204.44;;;20.65;51.22
6528;BME280;64597;42.664;23.256;2023-08-31T05:34:05;94227.03;;;20.95;50.93
6528;BME280;64597;42.664;23.256;2023-08-31T05:36:30;94235.16;;;21.03;50.62
6528;BME280;64597;42.664;23.256;2023-08-31T05:38:56;94226.19;;;21.08;50.51
6528;BME280;64597;42.664;23.256;2023-08-31T05:41:21;94200.78;;;21.05;50.29
6528;BME280;64597;42.664;23.256;2023-08-31T05:43:47;94223.72;;;21.20;49.94
6528;BME280;64597;42.664;23.256;2023-08-31T05:46:12;94222.84;;;21.33;49.42
6528;BME280;64597;42.664;23.256;2023-08-31T05:48:37;94191.72;;;21.23;48.99
6528;BME280;64597;42.664;23.256;2023-08-31T05:51:03;94187.50;;;21.31;48.79
6528;BME280;64597;42.664;23.256;2023-08-31T05:53:30;94207.16;;;21.57;48.35
6528;BME280;64597;42.664;23.256;2023-08-31T05:55:58;94221.09;;;21.76;47.85
6528;BME280;64597;42.664;23.256;2023-08-31T05:58:30;94220.84;;;21.86;47.37
6528;BME280;64597;42.664;23.256;2023-08-31T06:00:56;94202.22;;;21.90;46.76
6528;BME280;64597;42.664;23.256;2023-08-31T06:03:22;94202.38;;;22.02;46.12
6528;BME280;64597;42.664;23.256;2023-08-31T06:05:48;94223.13;;;22.36;45.54
6528;BME280;64597;42.664;23.256;2023-08-31T06:08:13;94229.31;;;22.62;44.67
6528;BME280;64597;42.664;23.256;2023-08-31T06:10:38;94077.78;;;21.86;44.53
6528;BME280;64597;42.664;23.256;2023-08-31T06:13:04;94233.34;;;23.11;42.52
6528;BME280;64597;42.664;23.256;2023-08-31T06:15:29;94236.97;;;23.40;42.60
6528;BME280;64597;42.664;23.256;2023-08-31T06:17:55;94222.44;;;23.70;41.73
6528;BME280;64597;42.664;23.256;2023-08-31T06:20:20;94233.41;;;24.24;41.22
6528;BME280;64597;42.664;23.256;2023-08-31T06:22:46;94212.44;;;24.50;40.25
6528;BME280;64597;42.664;23.256;2023-08-31T06:25:11;94239.63;;;24.98;39.40
6528;BME280;64597;42.664;23.256;2023-08-31T06:27:37;94245.28;;;25.38;38.37
6528;BME280;64597;42.664;23.256;2023-08-31T06:30:02;94239.06;;;25.70;37.97
6528;BME280;64597;42.664;23.256;2023-08-31T06:32:28;94250.91;;;26.14;37.26
6528;BME280;64597;42.664;23.256;2023-08-31T06:34:54;94238.94;;;26.27;36.48
6528;BME280;64597;42.664;23.256;2023-08-31T06:37:19;94240.59;;;26.56;35.82
6528;BME280;64597;42.664;23.256;2023-08-31T06:39:45;94242.03;;;26.77;35.69
6528;BME280;64597;42.664;23.256;2023-08-31T06:42:11;94249.94;;;27.10;35.32
6528;BME280;64597;42.664;23.256;2023-08-31T06:44:36;94252.56;;;27.50;35.08
6528;BME280;64597;42.664;23.256;2023-08-31T06:47:01;94253.16;;;28.02;32.96
6528;BME280;64597;42.664;23.256;2023-08-31T06:49:28;94260.91;;;28.35;33.29
6528;BME280;64597;42.664;23.256;2023-08-31T06:51:55;94229.78;;;28.64;32.82
6528;BME280;64597;42.664;23.256;2023-08-31T06:54:20;94243.94;;;29.11;32.17
6528;BME280;64597;42.664;23.256;2023-08-31T06:56:46;94233.63;;;29.39;30.50
6528;BME280;64597;42.664;23.256;2023-08-31T06:59:12;94246.03;;;29.78;29.73
6528;BME280;64597;42.664;23.256;2023-08-31T07:01:37;94251.81;;;29.77;30.31
6528;BME280;64597;42.664;23.256;2023-08-31T07:04:03;94260.03;;;29.80;30.65
6528;BME280;64597;42.664;23.256;2023-08-31T07:06:29;94223.44;;;29.74;30.16
6528;BME280;64597;42.664;23.256;2023-08-31T07:08:55;94274.59;;;30.14;29.90
6528;BME280;64597;42.664;23.256;2023-08-31T07:11:20;94263.28;;;30.35;29.68
6528;BME280;64597;42.664;23.256;2023-08-31T07:13:46;94225.97;;;30.35;28.78
6528;BME280;64597;42.664;23.256;2023-08-31T07:16:12;94242.84;;;30.74;28.71
6528;BME280;64597;42.664;23.256;2023-08-31T07:18:37;94246.94;;;30.87;27.22
6528;BME280;64597;42.664;23.256;2023-08-31T07:21:03;94243.28;;;31.06;26.91
6528;BME280;64597;42.664;23.256;2023-08-31T07:23:30;94266.72;;;31.43;27.79
6528;BME280;64597;42.664;23.256;2023-08-31T07:25:58;94243.16;;;31.61;26.14
6528;BME280;64597;42.664;23.256;2023-08-31T07:28:26;94263.06;;;31.65;24.71
6528;BME280;64597;42.664;23.256;2023-08-31T07:31:04;94268.81;;;31.57;25.94
6528;BME280;64597;42.664;23.256;2023-08-31T07:33:33;94269.28;;;31.62;25.49
6528;BME280;64597;42.664;23.256;2023-08-31T07:36:02;94272.25;;;31.50;24.98
6528;BME280;64597;42.664;23.256;2023-08-31T07:38:30;94250.59;;;31.31;25.16
6528;BME280;64597;42.664;23.256;2023-08-31T07:40:56;94244.75;;;31.00;25.91
6528;BME280;64597;42.664;23.256;2023-08-31T07:43:21;94278.41;;;31.14;25.96
6528;BME280;64597;42.664;23.256;2023-08-31T07:45:47;94276.59;;;30.66;26.50
6528;BME280;64597;42.664;23.256;2023-08-31T07:48:13;94277.00;;;30.68;26.88
6528;BME280;64597;42.664;23.256;2023-08-31T07:50:41;94276.38;;;30.78;26.70
6528;BME280;64597;42.664;23.256;2023-08-31T07:53:06;94289.94;;;31.01;26.45
6528;BME280;64597;42.664;23.256;2023-08-31T07:55:32;94285.69;;;31.03;26.23
6528;BME280;64597;42.664;23.256;2023-08-31T07:57:58;94277.16;;;31.08;26.72
6528;BME280;64597;42.664;23.256;2023-08-31T08:00:23;94280.00;;;31.15;26.25
6528;BME280;64597;42.664;23.256;2023-08-31T08:02:49;94277.75;;;31.24;25.89
6528;BME280;64597;42.664;23.256;2023-08-31T08:05:14;94283.22;;;31.24;25.89
6528;BME280;64597;42.664;23.256;2023-08-31T08:07:39;94257.81;;;30.87;25.95
6528;BME280;64597;42.664;23.256;2023-08-31T08:10:07;94282.81;;;30.66;26.36
6528;BME280;64597;42.664;23.256;2023-08-31T08:12:40;94273.06;;;30.17;26.77
6528;BME280;64597;42.664;23.256;2023-08-31T08:15:06;94287.53;;;30.21;27.03
6528;BME280;64597;42.664;23.256;2023-08-31T08:17:35;94284.94;;;30.28;26.61
6528;BME280;64597;42.664;23.256;2023-08-31T08:20:01;94280.50;;;30.42;26.88
6528;BME280;64597;42.664;23.256;2023-08-31T08:22:26;94278.78;;;30.57;26.23
6528;BME280;64597;42.664;23.256;2023-08-31T08:24:52;94291.28;;;30.87;26.10
6528;BME280;64597;42.664;23.256;2023-08-31T08:27:17;94248.28;;;31.33;25.29
6528;BME280;64597;42.664;23.256;2023-08-31T08:29:45;94283.47;;;32.19;23.92
6528;BME280;64597;42.664;23.256;2023-08-31T08:32:10;94276.84;;;32.67;23.02
6528;BME280;64597;42.664;23.256;2023-08-31T08:34:36;94270.00;;;32.98;22.57
6528;BME280;64597;42.664;23.256;2023-08-31T08:37:01;94262.13;;;32.86;21.79
6528;BME280;64597;42.664;23.256;2023-08-31T08:39:28;94280.81;;;32.77;22.58
6528;BME280;64597;42.664;23.256;2023-08-31T08:41:54;94290.16;;;32.79;22.84
6528;BME280;64597;42.664;23.256;2023-08-31T08:44:25;94270.81;;;32.98;21.93
6528;BME280;64597;42.664;23.256;2023-08-31T08:46:52;94259.69;;;33.42;21.47
6528;BME280;64597;42.664;23.256;2023-08-31T08:49:18;94279.34;;;33.90;20.55
6528;BME280;64597;42.664;23.256;2023-08-31T08:51:45;94284.50;;;34.16;20.47
6528;BME280;64597;42.664;23.256;2023-08-31T08:54:13;94271.97;;;34.15;20.08
6528;BME280;64597;42.664;23.256;2023-08-31T08:56:39;94289.19;;;34.16;20.34
6528;BME280;64597;42.664;23.256;2023-08-31T08:59:05;94279.41;;;34.74;19.84
6528;BME280;64597;42.664;23.256;2023-08-31T09:01:32;94274.25;;;35.15;19.48
6528;BME280;64597;42.664;23.256;2023-08-31T09:04:00;94283.91;;;35.58;19.01
6528;BME280;64597;42.664;23.256;2023-08-31T09:06:27;94275.50;;;35.87;19.04
6528;BME280;64597;42.664;23.256;2023-08-31T09:08:56;94277.75;;;36.09;18.64
6528;BME280;64597;42.664;23.256;2023-08-31T09:11:22;94273.44;;;36.08;18.93
6528;BME280;64597;42.664;23.256;2023-08-31T09:13:49;94262.75;;;36.24;18.56
6528;BME280;64597;42.664;23.256;2023-08-31T09:16:35;94250.38;;;35.95;18.42
6528;BME280;64597;42.664;23.256;2023-08-31T09:19:17;94263.22;;;36.09;18.45
6528;BME280;64597;42.664;23.256;2023-08-31T09:21:43;94275.66;;;36.27;18.01
6528;BME280;64597;42.664;23.256;2023-08-31T09:24:11;94270.91;;;36.31;17.76
6528;BME280;64597;42.664;23.256;2023-08-31T09:26:38;94281.84;;;36.35;17.96
6528;BME280;64597;42.664;23.256;2023-08-31T09:29:07;94273.84;;;36.10;18.29
6528;BME280;64597;42.664;23.256;2023-08-31T09:31:33;94273.13;;;35.92;17.73
6528;BME280;64597;42.664;23.256;2023-08-31T09:33:58;94255.41;;;35.28;17.92
6528;BME280;64597;42.664;23.256;2023-08-31T09:36:24;94276.50;;;35.45;18.55
6528;BME280;64597;42.664;23.256;2023-08-31T09:38:49;94268.69;;;35.47;19.05
6528;BME280;64597;42.664;23.256;2023-08-31T09:41:15;94272.50;;;35.63;18.90
6528;BME280;64597;42.664;23.256;2023-08-31T09:43:41;94266.84;;;35.99;18.95
6528;BME280;64597;42.664;23.256;2023-08-31T09:46:08;94215.25;;;35.69;18.28
6528;BME280;64597;42.664;23.256;2023-08-31T09:48:35;94222.56;;;35.86;17.85
6528;BME280;64597;42.664;23.256;2023-08-31T09:51:04;94267.09;;;36.15;17.90
6528;BME280;64597;42.664;23.256;2023-08-31T09:53:31;94241.38;;;35.91;17.33
6528;BME280;64597;42.664;23.256;2023-08-31T09:55:57;94225.69;;;35.16;17.71
6528;BME280;64597;42.664;23.256;2023-08-31T09:58:23;94271.16;;;35.03;17.61
6528;BME280;64597;42.664;23.256;2023-08-31T10:00:50;94276.91;;;35.33;17.97
6528;BME280;64597;42.664;23.256;2023-08-31T10:03:16;94240.13;;;35.30;17.54
6528;BME280;64597;42.664;23.256;2023-08-31T10:05:47;94227.91;;;35.42;17.31
6528;BME280;64597;42.664;23.256;2023-08-31T10:08:13;94261.50;;;35.71;17.94
6528;BME280;64597;42.664;23.256;2023-08-31T10:10:40;94256.75;;;35.75;17.89
6528;BME280;64597;42.664;23.256;2023-08-31T10:13:06;94252.81;;;35.79;17.00
6528;BME280;64597;42.664;23.256;2023-08-31T10:15:33;94252.81;;;35.79;16.57
6528;BME280;64597;42.664;23.256;2023-08-31T10:18:06;94258.25;;;35.86;16.90
6528;BME280;64597;42.664;23.256;2023-08-31T10:20:32;94263.81;;;35.79;17.16
6528;BME280;64597;42.664;23.256;2023-08-31T10:22:59;94262.72;;;35.63;17.05
6528;BME280;64597;42.664;23.256;2023-08-31T10:28:22;94270.22;;;35.44;17.80
6528;BME280;64597;42.664;23.256;2023-08-31T10:33:34;94275.78;;;35.23;17.12
6528;BME280;64597;42.664;23.256;2023-08-31T10:36:00;94261.75;;;34.97;17.99
6528;BME280;64597;42.664;23.256;2023-08-31T10:38:31;94265.69;;;34.89;18.39
6528;BME280;64597;42.664;23.256;2023-08-31T10:41:03;94277.44;;;34.78;18.17
6528;BME280;64597;42.664;23.256;2023-08-31T10:43:47;94279.41;;;34.78;18.54
6528;BME280;64597;42.664;23.256;2023-08-31T10:48:59;94269.22;;;34.89;18.57
6528;BME280;64597;42.664;23.256;2023-08-31T10:51:31;94276.66;;;34.89;18.64
6528;BME280;64597;42.664;23.256;2023-08-31T10:54:20;94279.78;;;34.80;18.10
6528;BME280;64597;42.664;23.256;2023-08-31T10:59:27;94279.81;;;34.83;18.59
6528;BME280;64597;42.664;23.256;2023-08-31T11:02:06;94261.78;;;34.75;19.58
6528;BME280;64597;42.664;23.256;2023-08-31T11:04:52;94262.19;;;34.77;19.98
6528;BME280;64597;42.664;23.256;2023-08-31T11:07:25;94292.72;;;34.65;20.03
6528;BME280;64597;42.664;23.256;2023-08-31T11:09:51;94293.91;;;34.57;19.82
6528;BME280;64597;42.664;23.256;2023-08-31T11:12:17;94285.28;;;34.41;20.22
6528;BME280;64597;42.664;23.256;2023-08-31T11:14:47;94288.44;;;34.36;20.42
6528;BME280;64597;42.664;23.256;2023-08-31T11:17:13;94286.06;;;34.31;20.11
6528;BME280;64597;42.664;23.256;2023-08-31T11:19:38;94283.72;;;34.23;20.23
6528;BME280;64597;42.664;23.256;2023-08-31T11:22:05;94282.94;;;34.19;19.97
6528;BME280;64597;42.664;23.256;2023-08-31T11:24:31;94288.78;;;34.07;19.96
6528;BME280;64597;42.664;23.256;2023-08-31T11:26:58;94275.06;;;33.89;20.58
6528;BME280;64597;42.664;23.256;2023-08-31T11:29:26;94273.47;;;33.70;20.17
6528;BME280;64597;42.664;23.256;2023-08-31T11:31:56;94283.22;;;33.68;19.77
6528;BME280;64597;42.664;23.256;2023-08-31T11:34:22;94289.44;;;33.58;20.16
6528;BME280;64597;42.664;23.256;2023-08-31T11:36:48;94285.84;;;33.47;20.30
6528;BME280;64597;42.664;23.256;2023-08-31T11:39:13;94285.84;;;33.47;20.60
6528;BME280;64597;42.664;23.256;2023-08-31T11:41:40;94299.97;;;33.49;21.29
6528;BME280;64597;42.664;23.256;2023-08-31T11:44:09;94290.22;;;33.58;21.14
6528;BME280;64597;42.664;23.256;2023-08-31T11:46:39;94293.34;;;33.60;22.31
6528;BME280;64597;42.664;23.256;2023-08-31T11:49:06;94290.50;;;33.43;22.57
6528;BME280;64597;42.664;23.256;2023-08-31T11:51:35;94280.72;;;33.28;22.69
6528;BME280;64597;42.664;23.256;2023-08-31T11:54:02;94253.97;;;32.96;22.81
6528;BME280;64597;42.664;23.256;2023-08-31T11:56:44;94280.50;;;32.96;23.07
6528;BME280;64597;42.664;23.256;2023-08-31T11:59:16;94277.78;;;32.96;23.11
6528;BME280;64597;42.664;23.256;2023-08-31T12:01:47;94278.16;;;32.87;23.17
6528;BME280;64597;42.664;23.256;2023-08-31T12:04:22;94273.81;;;32.83;23.44
6528;BME280;64597;42.664;23.256;2023-08-31T12:07:01;94272.56;;;32.73;23.58
6528;BME280;64597;42.664;23.256;2023-08-31T12:09:30;94268.94;;;32.55;23.69
6528;BME280;64597;42.664;23.256;2023-08-31T12:11:58;94279.75;;;32.41;24.16
6528;BME280;64597;42.664;23.256;2023-08-31T12:14:26;94279.31;;;32.32;23.69
6528;BME280;64597;42.664;23.256;2023-08-31T12:17:00;94280.34;;;32.17;24.55
6528;BME280;64597;42.664;23.256;2023-08-31T12:19:29;94259.09;;;31.96;24.42
6528;BME280;64597;42.664;23.256;2023-08-31T12:21:56;94268.09;;;31.97;24.32
6528;BME280;64597;42.664;23.256;2023-08-31T12:24:21;94258.50;;;31.77;24.24
6528;BME280;64597;42.664;23.256;2023-08-31T12:26:48;94267.56;;;31.88;24.40
6528;BME280;64597;42.664;23.256;2023-08-31T12:29:14;94267.41;;;31.70;24.41
6528;BME280;64597;42.664;23.256;2023-08-31T12:31:40;94272.41;;;31.64;24.74
6528;BME280;64597;42.664;23.256;2023-08-31T12:34:05;94264.78;;;31.44;24.92
6528;BME280;64597;42.664;23.256;2023-08-31T12:36:32;94274.97;;;31.50;24.87
6528;BME280;64597;42.664;23.256;2023-08-31T12:38:58;94270.28;;;31.47;24.80
6528;BME280;64597;42.664;23.256;2023-08-31T12:41:27;94271.91;;;31.55;25.06
6528;BME280;64597;42.664;23.256;2023-08-31T12:43:55;94268.09;;;31.60;25.01
6528;BME280;64597;42.664;23.256;2023-08-31T12:46:21;94259.38;;;31.47;25.34
6528;BME280;64597;42.664;23.256;2023-08-31T12:48:46;94267.97;;;31.49;24.80
6528;BME280;64597;42.664;23.256;2023-08-31T12:51:14;94262.88;;;31.48;24.72
6528;BME280;64597;42.664;23.256;2023-08-31T12:53:40;94256.97;;;31.42;24.42
6528;BME280;64597;42.664;23.256;2023-08-31T12:56:05;94249.69;;;31.20;25.22
6528;BME280;64597;42.664;23.256;2023-08-31T12:58:31;94258.41;;;31.33;24.17
6528;BME280;64597;42.664;23.256;2023-08-31T13:00:58;94263.72;;;31.22;24.46
6528;BME280;64597;42.664;23.256;2023-08-31T13:03:24;94265.31;;;31.23;24.68
6528;BME280;64597;42.664;23.256;2023-08-31T13:05:49;94269.00;;;31.08;24.74
6528;BME280;64597;42.664;23.256;2023-08-31T13:08:16;94271.66;;;31.01;25.06
6528;BME280;64597;42.664;23.256;2023-08-31T13:10:42;94266.09;;;30.94;24.68
6528;BME280;64597;42.664;23.256;2023-08-31T13:13:08;94261.47;;;30.98;24.71
6528;BME280;64597;42.664;23.256;2023-08-31T13:15:33;94262.41;;;31.09;24.46
6528;BME280;64597;42.664;23.256;2023-08-31T13:17:59;94262.94;;;31.22;24.38